Feezor, North Carolina
Current Conditions -  °F | °C
As of 10:55 AM on Tuesday 21 Oct 2014 (Local Time) from KEXX Reporting Station
Clear Clear  
Wind Chill: 65°   Ceiling: Unl
Heat Index: 65°   Visibility: 10mi
Dew Point: 50°   Wind: 0mph
Humidity: 58%   Direction: NA
Pressure: 29.94"   Gusts: NA
Location:  35.7974°N, 80.2541°W
Report Text: KEXX 211455Z AUTO 00000KT 10SM CLR 19/10 A2994 RMK AO2 T01860102
Loading
Personal Weather Stations






























Interactive Weather Map
Tropical Storm Tracking
New forecast layout! Learn more

10-Day Weather Forecast

Advertisements
Track Severe Weather on mobile